sensor_id;sensor_type;location;lat;lon;timestamp;P1;durP1;ratioP1;P2;durP2;ratioP2
32633;SDS011;19043;51.012;5.648;2023-07-29T00:01:27;6.68;;;6.00;;
32633;SDS011;19043;51.012;5.648;2023-07-29T00:03:52;6.85;;;5.45;;
32633;SDS011;19043;51.012;5.648;2023-07-29T00:06:17;7.13;;;6.43;;
32633;SDS011;19043;51.012;5.648;2023-07-29T00:08:42;6.50;;;5.90;;
32633;SDS011;19043;51.012;5.648;2023-07-29T00:11:08;7.47;;;5.93;;
32633;SDS011;19043;51.012;5.648;2023-07-29T00:13:33;9.40;;;5.28;;
32633;SDS011;19043;51.012;5.648;2023-07-29T00:15:58;7.83;;;6.27;;
32633;SDS011;19043;51.012;5.648;2023-07-29T00:18:24;6.88;;;6.15;;
32633;SDS011;19043;51.012;5.648;2023-07-29T00:20:49;5.72;;;5.13;;
32633;SDS011;19043;51.012;5.648;2023-07-29T00:23:16;6.07;;;5.15;;
32633;SDS011;19043;51.012;5.648;2023-07-29T00:25:41;6.68;;;6.07;;
32633;SDS011;19043;51.012;5.648;2023-07-29T00:28:07;9.50;;;7.33;;
32633;SDS011;19043;51.012;5.648;2023-07-29T00:30:32;8.15;;;6.90;;
32633;SDS011;19043;51.012;5.648;2023-07-29T00:32:57;8.05;;;7.25;;
32633;SDS011;19043;51.012;5.648;2023-07-29T00:35:22;9.33;;;7.23;;
32633;SDS011;19043;51.012;5.648;2023-07-29T00:37:48;9.43;;;7.30;;
32633;SDS011;19043;51.012;5.648;2023-07-29T00:40:19;6.85;;;6.20;;
32633;SDS011;19043;51.012;5.648;2023-07-29T00:42:45;9.20;;;7.65;;
32633;SDS011;19043;51.012;5.648;2023-07-29T00:45:10;9.00;;;8.18;;
32633;SDS011;19043;51.012;5.648;2023-07-29T00:47:36;9.68;;;8.68;;
32633;SDS011;19043;51.012;5.648;2023-07-29T00:50:02;9.70;;;8.70;;
32633;SDS011;19043;51.012;5.648;2023-07-29T00:52:27;9.35;;;8.38;;
32633;SDS011;19043;51.012;5.648;2023-07-29T00:54:52;9.57;;;8.67;;
32633;SDS011;19043;51.012;5.648;2023-07-29T00:57:17;8.05;;;7.35;;
32633;SDS011;19043;51.012;5.648;2023-07-29T00:59:44;9.63;;;8.77;;
32633;SDS011;19043;51.012;5.648;2023-07-29T01:02:09;8.95;;;8.13;;
32633;SDS011;19043;51.012;5.648;2023-07-29T01:04:34;9.85;;;8.85;;
32633;SDS011;19043;51.012;5.648;2023-07-29T01:09:50;7.95;;;7.15;;
32633;SDS011;19043;51.012;5.648;2023-07-29T01:12:23;9.20;;;8.05;;
32633;SDS011;19043;51.012;5.648;2023-07-29T01:15:11;10.63;;;9.63;;
32633;SDS011;19043;51.012;5.648;2023-07-29T01:17:48;8.77;;;7.88;;
32633;SDS011;19043;51.012;5.648;2023-07-29T01:20:15;9.68;;;8.57;;
32633;SDS011;19043;51.012;5.648;2023-07-29T01:22:41;10.50;;;9.38;;
32633;SDS011;19043;51.012;5.648;2023-07-29T01:25:06;9.52;;;8.63;;
32633;SDS011;19043;51.012;5.648;2023-07-29T01:27:31;10.52;;;8.85;;
32633;SDS011;19043;51.012;5.648;2023-07-29T01:29:57;9.38;;;8.57;;
32633;SDS011;19043;51.012;5.648;2023-07-29T01:37:39;11.37;;;10.23;;
32633;SDS011;19043;51.012;5.648;2023-07-29T01:40:06;11.35;;;10.15;;
32633;SDS011;19043;51.012;5.648;2023-07-29T01:42:32;12.50;;;10.35;;
32633;SDS011;19043;51.012;5.648;2023-07-29T01:44:57;10.93;;;9.82;;
32633;SDS011;19043;51.012;5.648;2023-07-29T01:47:22;11.68;;;10.52;;
32633;SDS011;19043;51.012;5.648;2023-07-29T01:49:48;12.70;;;10.83;;
32633;SDS011;19043;51.012;5.648;2023-07-29T01:52:13;11.02;;;9.98;;
32633;SDS011;19043;51.012;5.648;2023-07-29T01:54:38;10.63;;;8.73;;
32633;SDS011;19043;51.012;5.648;2023-07-29T01:57:03;9.17;;;8.00;;
32633;SDS011;19043;51.012;5.648;2023-07-29T01:59:29;7.75;;;7.05;;
32633;SDS011;19043;51.012;5.648;2023-07-29T02:01:54;11.70;;;6.32;;
32633;SDS011;19043;51.012;5.648;2023-07-29T02:04:19;6.83;;;6.00;;
32633;SDS011;19043;51.012;5.648;2023-07-29T02:06:44;6.23;;;5.30;;
32633;SDS011;19043;51.012;5.648;2023-07-29T02:09:10;6.88;;;5.70;;
32633;SDS011;19043;51.012;5.648;2023-07-29T02:11:35;6.27;;;5.37;;
32633;SDS011;19043;51.012;5.648;2023-07-29T02:14:00;6.28;;;5.32;;
32633;SDS011;19043;51.012;5.648;2023-07-29T02:16:25;5.90;;;5.27;;
32633;SDS011;19043;51.012;5.648;2023-07-29T02:18:51;5.70;;;4.53;;
32633;SDS011;19043;51.012;5.648;2023-07-29T02:21:16;6.75;;;5.45;;
32633;SDS011;19043;51.012;5.648;2023-07-29T02:23:41;5.43;;;4.82;;
32633;SDS011;19043;51.012;5.648;2023-07-29T02:26:07;10.27;;;5.25;;
32633;SDS011;19043;51.012;5.648;2023-07-29T02:28:32;6.80;;;5.25;;
32633;SDS011;19043;51.012;5.648;2023-07-29T02:33:35;5.90;;;5.28;;
32633;SDS011;19043;51.012;5.648;2023-07-29T02:36:01;5.90;;;5.27;;
32633;SDS011;19043;51.012;5.648;2023-07-29T02:38:26;7.00;;;5.17;;
32633;SDS011;19043;51.012;5.648;2023-07-29T02:40:51;7.33;;;5.13;;
32633;SDS011;19043;51.012;5.648;2023-07-29T02:43:16;6.38;;;4.72;;
32633;SDS011;19043;51.012;5.648;2023-07-29T02:45:41;7.73;;;4.90;;
32633;SDS011;19043;51.012;5.648;2023-07-29T02:48:07;6.17;;;4.60;;
32633;SDS011;19043;51.012;5.648;2023-07-29T02:50:34;7.53;;;4.70;;
32633;SDS011;19043;51.012;5.648;2023-07-29T02:52:59;6.40;;;5.25;;
32633;SDS011;19043;51.012;5.648;2023-07-29T02:55:26;7.22;;;4.80;;
32633;SDS011;19043;51.012;5.648;2023-07-29T02:57:51;5.60;;;4.57;;
32633;SDS011;19043;51.012;5.648;2023-07-29T03:00:16;6.10;;;4.90;;
32633;SDS011;19043;51.012;5.648;2023-07-29T03:02:42;7.18;;;4.95;;
32633;SDS011;19043;51.012;5.648;2023-07-29T03:05:07;6.23;;;5.00;;
32633;SDS011;19043;51.012;5.648;2023-07-29T03:07:32;8.35;;;5.15;;
32633;SDS011;19043;51.012;5.648;2023-07-29T03:09:58;6.72;;;4.85;;
32633;SDS011;19043;51.012;5.648;2023-07-29T03:12:23;6.67;;;5.23;;
32633;SDS011;19043;51.012;5.648;2023-07-29T03:14:48;7.27;;;5.27;;
32633;SDS011;19043;51.012;5.648;2023-07-29T03:17:13;7.93;;;5.17;;
32633;SDS011;19043;51.012;5.648;2023-07-29T03:19:39;6.88;;;5.43;;
32633;SDS011;19043;51.012;5.648;2023-07-29T03:22:04;7.03;;;4.90;;
32633;SDS011;19043;51.012;5.648;2023-07-29T03:24:29;6.50;;;5.28;;
32633;SDS011;19043;51.012;5.648;2023-07-29T03:26:54;6.00;;;5.43;;
32633;SDS011;19043;51.012;5.648;2023-07-29T03:29:20;8.73;;;6.07;;
32633;SDS011;19043;51.012;5.648;2023-07-29T03:31:45;7.30;;;5.57;;
32633;SDS011;19043;51.012;5.648;2023-07-29T03:34:10;8.77;;;5.23;;
32633;SDS011;19043;51.012;5.648;2023-07-29T03:36:37;8.00;;;6.28;;
32633;SDS011;19043;51.012;5.648;2023-07-29T03:39:02;6.90;;;5.60;;
32633;SDS011;19043;51.012;5.648;2023-07-29T03:41:28;8.13;;;5.68;;
32633;SDS011;19043;51.012;5.648;2023-07-29T03:43:54;7.05;;;5.43;;
32633;SDS011;19043;51.012;5.648;2023-07-29T03:46:19;5.50;;;4.53;;
32633;SDS011;19043;51.012;5.648;2023-07-29T03:48:46;6.32;;;2.97;;
32633;SDS011;19043;51.012;5.648;2023-07-29T03:51:12;4.97;;;3.42;;
32633;SDS011;19043;51.012;5.648;2023-07-29T03:53:37;7.53;;;3.47;;
32633;SDS011;19043;51.012;5.648;2023-07-29T03:56:02;4.43;;;2.97;;
32633;SDS011;19043;51.012;5.648;2023-07-29T03:58:27;4.80;;;3.17;;
32633;SDS011;19043;51.012;5.648;2023-07-29T04:00:53;7.00;;;2.42;;
32633;SDS011;19043;51.012;5.648;2023-07-29T04:03:18;4.07;;;2.53;;
32633;SDS011;19043;51.012;5.648;2023-07-29T04:05:43;4.10;;;2.95;;
32633;SDS011;19043;51.012;5.648;2023-07-29T04:08:09;4.65;;;2.70;;
32633;SDS011;19043;51.012;5.648;2023-07-29T04:10:34;5.53;;;3.08;;
32633;SDS011;19043;51.012;5.648;2023-07-29T04:13:00;3.47;;;2.92;;
32633;SDS011;19043;51.012;5.648;2023-07-29T04:15:25;4.43;;;3.00;;
32633;SDS011;19043;51.012;5.648;2023-07-29T04:17:50;6.35;;;3.58;;
32633;SDS011;19043;51.012;5.648;2023-07-29T04:20:16;7.78;;;3.22;;
32633;SDS011;19043;51.012;5.648;2023-07-29T04:22:41;4.38;;;2.95;;
32633;SDS011;19043;51.012;5.648;2023-07-29T04:25:06;4.38;;;3.13;;
32633;SDS011;19043;51.012;5.648;2023-07-29T04:27:32;4.93;;;2.95;;
32633;SDS011;19043;51.012;5.648;2023-07-29T04:29:57;3.58;;;2.78;;
32633;SDS011;19043;51.012;5.648;2023-07-29T04:32:22;11.23;;;3.80;;
32633;SDS011;19043;51.012;5.648;2023-07-29T04:34:47;3.87;;;3.07;;
32633;SDS011;19043;51.012;5.648;2023-07-29T04:37:13;6.40;;;4.00;;
32633;SDS011;19043;51.012;5.648;2023-07-29T04:39:38;5.90;;;4.13;;
32633;SDS011;19043;51.012;5.648;2023-07-29T04:42:03;7.90;;;3.70;;
32633;SDS011;19043;51.012;5.648;2023-07-29T04:44:28;4.90;;;3.60;;
32633;SDS011;19043;51.012;5.648;2023-07-29T04:46:54;5.10;;;3.67;;
32633;SDS011;19043;51.012;5.648;2023-07-29T04:49:19;4.75;;;3.72;;
32633;SDS011;19043;51.012;5.648;2023-07-29T04:51:44;4.85;;;3.58;;
32633;SDS011;19043;51.012;5.648;2023-07-29T04:54:09;6.83;;;4.10;;
32633;SDS011;19043;51.012;5.648;2023-07-29T04:56:35;7.82;;;4.20;;
32633;SDS011;19043;51.012;5.648;2023-07-29T04:59:00;6.25;;;4.00;;
32633;SDS011;19043;51.012;5.648;2023-07-29T05:01:25;6.70;;;4.18;;
32633;SDS011;19043;51.012;5.648;2023-07-29T05:03:51;7.97;;;3.95;;
32633;SDS011;19043;51.012;5.648;2023-07-29T05:06:16;9.82;;;3.90;;
32633;SDS011;19043;51.012;5.648;2023-07-29T05:08:41;6.17;;;4.10;;
32633;SDS011;19043;51.012;5.648;2023-07-29T05:11:07;4.90;;;3.83;;
32633;SDS011;19043;51.012;5.648;2023-07-29T05:13:32;8.37;;;4.57;;
32633;SDS011;19043;51.012;5.648;2023-07-29T05:15:57;8.17;;;4.03;;
32633;SDS011;19043;51.012;5.648;2023-07-29T05:18:22;5.47;;;4.22;;
32633;SDS011;19043;51.012;5.648;2023-07-29T05:20:48;5.47;;;4.10;;
32633;SDS011;19043;51.012;5.648;2023-07-29T05:23:13;5.75;;;4.10;;
32633;SDS011;19043;51.012;5.648;2023-07-29T05:25:39;5.50;;;3.60;;
32633;SDS011;19043;51.012;5.648;2023-07-29T05:28:04;6.57;;;4.38;;
32633;SDS011;19043;51.012;5.648;2023-07-29T05:30:30;5.22;;;4.13;;
32633;SDS011;19043;51.012;5.648;2023-07-29T05:32:59;6.75;;;3.72;;
32633;SDS011;19043;51.012;5.648;2023-07-29T05:35:24;6.57;;;3.90;;
32633;SDS011;19043;51.012;5.648;2023-07-29T05:37:49;7.37;;;3.83;;
32633;SDS011;19043;51.012;5.648;2023-07-29T05:40:15;5.38;;;4.00;;
32633;SDS011;19043;51.012;5.648;2023-07-29T05:42:40;5.47;;;3.70;;
32633;SDS011;19043;51.012;5.648;2023-07-29T05:45:05;7.97;;;3.63;;
32633;SDS011;19043;51.012;5.648;2023-07-29T05:47:31;8.10;;;4.55;;
32633;SDS011;19043;51.012;5.648;2023-07-29T05:49:56;6.53;;;4.10;;
32633;SDS011;19043;51.012;5.648;2023-07-29T05:52:21;11.48;;;4.22;;
32633;SDS011;19043;51.012;5.648;2023-07-29T05:54:47;6.70;;;4.57;;
32633;SDS011;19043;51.012;5.648;2023-07-29T05:57:12;6.57;;;3.80;;
32633;SDS011;19043;51.012;5.648;2023-07-29T05:59:37;6.35;;;4.20;;
32633;SDS011;19043;51.012;5.648;2023-07-29T06:02:03;7.35;;;3.95;;
32633;SDS011;19043;51.012;5.648;2023-07-29T06:04:28;4.40;;;3.35;;
32633;SDS011;19043;51.012;5.648;2023-07-29T06:06:53;6.60;;;3.58;;
32633;SDS011;19043;51.012;5.648;2023-07-29T06:09:20;6.70;;;3.67;;
32633;SDS011;19043;51.012;5.648;2023-07-29T06:11:45;6.97;;;4.13;;
32633;SDS011;19043;51.012;5.648;2023-07-29T06:14:11;5.40;;;3.43;;
32633;SDS011;19043;51.012;5.648;2023-07-29T06:16:36;5.87;;;3.00;;
32633;SDS011;19043;51.012;5.648;2023-07-29T06:19:01;4.40;;;2.93;;
32633;SDS011;19043;51.012;5.648;2023-07-29T06:21:26;5.60;;;3.35;;
32633;SDS011;19043;51.012;5.648;2023-07-29T06:23:52;4.75;;;2.90;;
32633;SDS011;19043;51.012;5.648;2023-07-29T06:26:17;6.35;;;3.22;;
32633;SDS011;19043;51.012;5.648;2023-07-29T06:28:43;5.55;;;3.45;;
32633;SDS011;19043;51.012;5.648;2023-07-29T06:31:08;5.13;;;4.22;;
32633;SDS011;19043;51.012;5.648;2023-07-29T06:33:33;6.07;;;3.90;;
32633;SDS011;19043;51.012;5.648;2023-07-29T06:35:58;6.17;;;4.27;;
32633;SDS011;19043;51.012;5.648;2023-07-29T06:38:24;6.90;;;4.47;;
32633;SDS011;19043;51.012;5.648;2023-07-29T06:40:49;5.97;;;5.20;;
32633;SDS011;19043;51.012;5.648;2023-07-29T06:43:14;5.95;;;5.35;;
32633;SDS011;19043;51.012;5.648;2023-07-29T06:45:39;11.83;;;5.27;;
32633;SDS011;19043;51.012;5.648;2023-07-29T06:48:05;7.95;;;5.65;;
32633;SDS011;19043;51.012;5.648;2023-07-29T06:50:30;6.78;;;5.68;;
32633;SDS011;19043;51.012;5.648;2023-07-29T06:52:55;6.07;;;5.00;;
32633;SDS011;19043;51.012;5.648;2023-07-29T06:55:21;8.07;;;5.13;;
32633;SDS011;19043;51.012;5.648;2023-07-29T06:57:46;6.20;;;5.03;;
32633;SDS011;19043;51.012;5.648;2023-07-29T07:00:11;7.37;;;5.40;;
32633;SDS011;19043;51.012;5.648;2023-07-29T07:02:37;8.77;;;4.93;;
32633;SDS011;19043;51.012;5.648;2023-07-29T07:05:02;6.63;;;4.33;;
32633;SDS011;19043;51.012;5.648;2023-07-29T07:07:27;5.57;;;4.10;;
32633;SDS011;19043;51.012;5.648;2023-07-29T07:09:52;6.17;;;3.73;;
32633;SDS011;19043;51.012;5.648;2023-07-29T07:12:17;4.10;;;3.20;;
32633;SDS011;19043;51.012;5.648;2023-07-29T07:14:43;6.32;;;2.85;;
32633;SDS011;19043;51.012;5.648;2023-07-29T07:17:08;5.03;;;2.87;;
32633;SDS011;19043;51.012;5.648;2023-07-29T07:19:33;4.55;;;3.03;;
32633;SDS011;19043;51.012;5.648;2023-07-29T07:21:58;4.43;;;2.83;;
32633;SDS011;19043;51.012;5.648;2023-07-29T07:24:24;3.93;;;3.00;;
32633;SDS011;19043;51.012;5.648;2023-07-29T07:26:49;5.80;;;2.50;;
32633;SDS011;19043;51.012;5.648;2023-07-29T07:29:14;3.37;;;2.53;;
32633;SDS011;19043;51.012;5.648;2023-07-29T07:31:40;4.35;;;2.53;;
32633;SDS011;19043;51.012;5.648;2023-07-29T07:34:05;2.55;;;1.73;;
32633;SDS011;19043;51.012;5.648;2023-07-29T07:36:30;3.53;;;1.90;;
32633;SDS011;19043;51.012;5.648;2023-07-29T07:38:58;5.38;;;2.25;;
32633;SDS011;19043;51.012;5.648;2023-07-29T07:41:23;4.40;;;2.37;;
32633;SDS011;19043;51.012;5.648;2023-07-29T07:43:49;3.40;;;1.60;;
32633;SDS011;19043;51.012;5.648;2023-07-29T07:46:14;3.40;;;1.90;;
32633;SDS011;19043;51.012;5.648;2023-07-29T07:48:39;3.27;;;1.43;;
32633;SDS011;19043;51.012;5.648;2023-07-29T07:51:11;4.38;;;1.77;;
32633;SDS011;19043;51.012;5.648;2023-07-29T07:53:36;2.75;;;1.90;;
32633;SDS011;19043;51.012;5.648;2023-07-29T07:56:01;2.50;;;1.47;;
32633;SDS011;19043;51.012;5.648;2023-07-29T07:58:27;3.60;;;1.33;;
32633;SDS011;19043;51.012;5.648;2023-07-29T08:00:52;2.40;;;1.30;;
32633;SDS011;19043;51.012;5.648;2023-07-29T08:03:25;2.55;;;1.23;;
32633;SDS011;19043;51.012;5.648;2023-07-29T08:05:50;2.70;;;1.53;;
32633;SDS011;19043;51.012;5.648;2023-07-29T08:08:15;3.50;;;1.23;;
32633;SDS011;19043;51.012;5.648;2023-07-29T08:10:41;2.75;;;1.45;;
32633;SDS011;19043;51.012;5.648;2023-07-29T08:13:06;2.72;;;1.48;;
32633;SDS011;19043;51.012;5.648;2023-07-29T08:15:31;2.27;;;1.23;;
32633;SDS011;19043;51.012;5.648;2023-07-29T08:17:57;3.00;;;1.17;;
32633;SDS011;19043;51.012;5.648;2023-07-29T08:20:22;2.67;;;1.10;;
32633;SDS011;19043;51.012;5.648;2023-07-29T08:22:47;3.50;;;0.97;;
32633;SDS011;19043;51.012;5.648;2023-07-29T08:25:12;2.20;;;1.17;;
32633;SDS011;19043;51.012;5.648;2023-07-29T08:27:38;1.42;;;0.85;;
32633;SDS011;19043;51.012;5.648;2023-07-29T08:30:03;2.80;;;1.23;;
32633;SDS011;19043;51.012;5.648;2023-07-29T08:32:28;1.52;;;0.77;;
32633;SDS011;19043;51.012;5.648;2023-07-29T08:34:53;2.00;;;1.10;;
32633;SDS011;19043;51.012;5.648;2023-07-29T08:37:19;2.50;;;1.03;;
32633;SDS011;19043;51.012;5.648;2023-07-29T08:39:44;3.33;;;1.00;;
32633;SDS011;19043;51.012;5.648;2023-07-29T08:42:11;3.40;;;1.45;;
32633;SDS011;19043;51.012;5.648;2023-07-29T08:44:43;1.95;;;1.20;;
32633;SDS011;19043;51.012;5.648;2023-07-29T08:47:08;2.42;;;1.50;;
32633;SDS011;19043;51.012;5.648;2023-07-29T08:49:34;2.95;;;1.15;;
32633;SDS011;19043;51.012;5.648;2023-07-29T08:51:59;2.65;;;1.30;;
32633;SDS011;19043;51.012;5.648;2023-07-29T08:54:24;2.33;;;1.42;;
32633;SDS011;19043;51.012;5.648;2023-07-29T08:56:50;1.83;;;0.98;;
32633;SDS011;19043;51.012;5.648;2023-07-29T08:59:15;2.43;;;1.10;;
32633;SDS011;19043;51.012;5.648;2023-07-29T09:01:42;4.20;;;1.23;;
32633;SDS011;19043;51.012;5.648;2023-07-29T09:04:07;2.70;;;1.40;;
32633;SDS011;19043;51.012;5.648;2023-07-29T09:06:33;2.50;;;1.30;;
32633;SDS011;19043;51.012;5.648;2023-07-29T09:09:00;2.45;;;1.10;;
32633;SDS011;19043;51.012;5.648;2023-07-29T09:11:26;2.85;;;1.45;;
32633;SDS011;19043;51.012;5.648;2023-07-29T09:13:51;2.47;;;1.23;;
32633;SDS011;19043;51.012;5.648;2023-07-29T09:16:18;2.83;;;1.38;;
32633;SDS011;19043;51.012;5.648;2023-07-29T09:18:50;3.10;;;1.20;;
32633;SDS011;19043;51.012;5.648;2023-07-29T09:21:16;2.40;;;1.45;;
32633;SDS011;19043;51.012;5.648;2023-07-29T09:23:42;2.60;;;1.30;;
32633;SDS011;19043;51.012;5.648;2023-07-29T09:26:07;3.00;;;1.40;;
32633;SDS011;19043;51.012;5.648;2023-07-29T09:28:34;2.75;;;1.35;;
32633;SDS011;19043;51.012;5.648;2023-07-29T09:30:59;3.33;;;1.50;;
32633;SDS011;19043;51.012;5.648;2023-07-29T09:33:25;2.45;;;1.30;;
32633;SDS011;19043;51.012;5.648;2023-07-29T09:35:51;2.42;;;1.30;;
32633;SDS011;19043;51.012;5.648;2023-07-29T09:38:16;2.38;;;1.33;;
32633;SDS011;19043;51.012;5.648;2023-07-29T09:40:41;2.50;;;1.17;;
32633;SDS011;19043;51.012;5.648;2023-07-29T09:43:10;3.00;;;1.20;;
32633;SDS011;19043;51.012;5.648;2023-07-29T09:45:35;3.80;;;1.42;;
32633;SDS011;19043;51.012;5.648;2023-07-29T09:48:01;2.40;;;1.30;;
32633;SDS011;19043;51.012;5.648;2023-07-29T09:50:27;2.22;;;1.15;;
32633;SDS011;19043;51.012;5.648;2023-07-29T09:52:53;2.30;;;1.13;;
32633;SDS011;19043;51.012;5.648;2023-07-29T09:55:20;2.38;;;1.10;;
32633;SDS011;19043;51.012;5.648;2023-07-29T09:57:46;3.55;;;1.33;;
32633;SDS011;19043;51.012;5.648;2023-07-29T10:00:11;2.42;;;1.02;;
32633;SDS011;19043;51.012;5.648;2023-07-29T10:02:38;1.83;;;1.17;;
32633;SDS011;19043;51.012;5.648;2023-07-29T10:05:04;2.63;;;1.10;;
32633;SDS011;19043;51.012;5.648;2023-07-29T10:07:30;3.45;;;1.20;;
32633;SDS011;19043;51.012;5.648;2023-07-29T10:09:55;2.28;;;1.23;;
32633;SDS011;19043;51.012;5.648;2023-07-29T10:12:21;2.20;;;1.35;;
32633;SDS011;19043;51.012;5.648;2023-07-29T10:14:46;3.92;;;1.33;;
32633;SDS011;19043;51.012;5.648;2023-07-29T10:17:12;2.25;;;1.17;;
32633;SDS011;19043;51.012;5.648;2023-07-29T10:19:40;2.33;;;1.40;;
32633;SDS011;19043;51.012;5.648;2023-07-29T10:22:07;1.85;;;1.00;;
32633;SDS011;19043;51.012;5.648;2023-07-29T10:24:33;1.70;;;1.05;;
32633;SDS011;19043;51.012;5.648;2023-07-29T10:26:59;2.30;;;1.40;;
32633;SDS011;19043;51.012;5.648;2023-07-29T10:29:24;2.45;;;1.35;;
32633;SDS011;19043;51.012;5.648;2023-07-29T10:31:52;2.42;;;1.30;;
32633;SDS011;19043;51.012;5.648;2023-07-29T10:34:21;2.13;;;1.00;;
32633;SDS011;19043;51.012;5.648;2023-07-29T10:36:47;2.90;;;1.15;;
32633;SDS011;19043;51.012;5.648;2023-07-29T10:39:12;2.47;;;1.02;;
32633;SDS011;19043;51.012;5.648;2023-07-29T10:47:11;3.70;;;1.30;;
32633;SDS011;19043;51.012;5.648;2023-07-29T10:49:37;2.85;;;1.10;;
32633;SDS011;19043;51.012;5.648;2023-07-29T10:52:05;3.53;;;1.17;;
32633;SDS011;19043;51.012;5.648;2023-07-29T10:54:31;2.70;;;1.38;;
32633;SDS011;19043;51.012;5.648;2023-07-29T10:57:06;1.65;;;1.05;;
32633;SDS011;19043;51.012;5.648;2023-07-29T10:59:32;1.70;;;0.98;;
32633;SDS011;19043;51.012;5.648;2023-07-29T11:01:58;2.08;;;1.13;;
32633;SDS011;19043;51.012;5.648;2023-07-29T11:04:24;2.20;;;1.05;;
32633;SDS011;19043;51.012;5.648;2023-07-29T11:09:40;2.42;;;1.00;;
32633;SDS011;19043;51.012;5.648;2023-07-29T11:14:52;4.27;;;1.17;;
32633;SDS011;19043;51.012;5.648;2023-07-29T11:17:17;2.13;;;0.83;;
32633;SDS011;19043;51.012;5.648;2023-07-29T11:19:43;3.13;;;1.10;;
32633;SDS011;19043;51.012;5.648;2023-07-29T11:22:09;3.33;;;1.27;;
32633;SDS011;19043;51.012;5.648;2023-07-29T11:24:34;1.97;;;1.20;;
32633;SDS011;19043;51.012;5.648;2023-07-29T11:27:00;3.10;;;1.47;;
32633;SDS011;19043;51.012;5.648;2023-07-29T11:29:25;2.50;;;1.13;;
32633;SDS011;19043;51.012;5.648;2023-07-29T11:31:50;1.37;;;0.80;;
32633;SDS011;19043;51.012;5.648;2023-07-29T11:34:16;2.47;;;0.90;;
32633;SDS011;19043;51.012;5.648;2023-07-29T11:36:45;2.40;;;1.23;;
32633;SDS011;19043;51.012;5.648;2023-07-29T11:39:10;2.22;;;1.30;;
32633;SDS011;19043;51.012;5.648;2023-07-29T11:41:36;2.20;;;1.10;;
32633;SDS011;19043;51.012;5.648;2023-07-29T11:44:02;2.35;;;1.00;;
32633;SDS011;19043;51.012;5.648;2023-07-29T11:46:27;2.45;;;1.05;;
32633;SDS011;19043;51.012;5.648;2023-07-29T11:48:53;2.45;;;1.30;;
32633;SDS011;19043;51.012;5.648;2023-07-29T11:51:19;2.65;;;1.50;;
32633;SDS011;19043;51.012;5.648;2023-07-29T11:53:44;3.50;;;1.38;;
32633;SDS011;19043;51.012;5.648;2023-07-29T11:56:10;2.10;;;1.40;;
32633;SDS011;19043;51.012;5.648;2023-07-29T11:58:36;5.53;;;1.17;;
32633;SDS011;19043;51.012;5.648;2023-07-29T12:01:02;3.75;;;1.58;;
32633;SDS011;19043;51.012;5.648;2023-07-29T12:03:28;2.45;;;1.40;;
32633;SDS011;19043;51.012;5.648;2023-07-29T12:05:53;2.17;;;1.42;;
32633;SDS011;19043;51.012;5.648;2023-07-29T12:08:19;2.42;;;1.60;;
32633;SDS011;19043;51.012;5.648;2023-07-29T12:10:44;2.53;;;1.70;;
32633;SDS011;19043;51.012;5.648;2023-07-29T12:13:09;3.38;;;1.77;;
32633;SDS011;19043;51.012;5.648;2023-07-29T12:15:35;5.53;;;2.10;;
32633;SDS011;19043;51.012;5.648;2023-07-29T12:18:02;3.38;;;1.73;;
32633;SDS011;19043;51.012;5.648;2023-07-29T12:20:29;3.10;;;1.77;;
32633;SDS011;19043;51.012;5.648;2023-07-29T12:22:58;2.95;;;1.90;;
32633;SDS011;19043;51.012;5.648;2023-07-29T12:25:23;5.15;;;2.00;;
32633;SDS011;19043;51.012;5.648;2023-07-29T12:27:49;2.78;;;1.90;;
32633;SDS011;19043;51.012;5.648;2023-07-29T12:30:14;3.28;;;2.00;;
32633;SDS011;19043;51.012;5.648;2023-07-29T12:32:46;3.22;;;2.05;;
32633;SDS011;19043;51.012;5.648;2023-07-29T12:35:12;3.75;;;2.03;;
32633;SDS011;19043;51.012;5.648;2023-07-29T12:37:37;3.00;;;1.70;;
32633;SDS011;19043;51.012;5.648;2023-07-29T12:40:04;4.05;;;2.38;;
32633;SDS011;19043;51.012;5.648;2023-07-29T12:42:29;3.40;;;2.08;;
32633;SDS011;19043;51.012;5.648;2023-07-29T12:44:54;4.90;;;2.20;;
32633;SDS011;19043;51.012;5.648;2023-07-29T12:47:19;3.13;;;2.07;;
32633;SDS011;19043;51.012;5.648;2023-07-29T12:49:45;5.07;;;2.70;;
32633;SDS011;19043;51.012;5.648;2023-07-29T12:52:10;6.23;;;2.20;;
32633;SDS011;19043;51.012;5.648;2023-07-29T12:54:35;3.72;;;2.15;;
32633;SDS011;19043;51.012;5.648;2023-07-29T12:57:00;3.57;;;1.83;;
32633;SDS011;19043;51.012;5.648;2023-07-29T12:59:26;3.72;;;2.05;;
32633;SDS011;19043;51.012;5.648;2023-07-29T13:01:51;3.13;;;1.58;;
32633;SDS011;19043;51.012;5.648;2023-07-29T13:04:16;4.75;;;1.95;;
32633;SDS011;19043;51.012;5.648;2023-07-29T13:06:41;4.50;;;2.42;;
32633;SDS011;19043;51.012;5.648;2023-07-29T13:09:07;3.00;;;2.10;;
32633;SDS011;19043;51.012;5.648;2023-07-29T13:11:32;2.88;;;1.67;;
32633;SDS011;19043;51.012;5.648;2023-07-29T13:13:58;3.15;;;1.88;;
32633;SDS011;19043;51.012;5.648;2023-07-29T13:16:23;3.13;;;1.70;;
32633;SDS011;19043;51.012;5.648;2023-07-29T13:18:48;2.83;;;1.60;;
32633;SDS011;19043;51.012;5.648;2023-07-29T13:21:13;2.57;;;1.57;;
32633;SDS011;19043;51.012;5.648;2023-07-29T13:23:38;2.93;;;1.50;;
32633;SDS011;19043;51.012;5.648;2023-07-29T13:26:04;3.60;;;1.80;;
32633;SDS011;19043;51.012;5.648;2023-07-29T13:28:29;2.55;;;1.55;;
32633;SDS011;19043;51.012;5.648;2023-07-29T13:30:54;2.95;;;1.88;;
32633;SDS011;19043;51.012;5.648;2023-07-29T13:33:20;3.88;;;2.40;;
32633;SDS011;19043;51.012;5.648;2023-07-29T13:35:45;3.97;;;2.25;;
32633;SDS011;19043;51.012;5.648;2023-07-29T13:38:10;5.07;;;2.47;;
32633;SDS011;19043;51.012;5.648;2023-07-29T13:40:36;2.70;;;2.10;;
32633;SDS011;19043;51.012;5.648;2023-07-29T13:43:01;2.80;;;2.10;;
32633;SDS011;19043;51.012;5.648;2023-07-29T13:45:26;2.70;;;1.90;;
32633;SDS011;19043;51.012;5.648;2023-07-29T13:47:52;3.42;;;2.30;;
32633;SDS011;19043;51.012;5.648;2023-07-29T13:50:17;4.53;;;1.88;;
32633;SDS011;19043;51.012;5.648;2023-07-29T13:52:45;3.25;;;2.40;;
32633;SDS011;19043;51.012;5.648;2023-07-29T13:55:10;4.25;;;2.40;;
32633;SDS011;19043;51.012;5.648;2023-07-29T13:57:36;4.28;;;2.25;;
32633;SDS011;19043;51.012;5.648;2023-07-29T14:00:02;6.50;;;2.67;;
32633;SDS011;19043;51.012;5.648;2023-07-29T14:02:27;4.60;;;2.50;;
32633;SDS011;19043;51.012;5.648;2023-07-29T14:04:53;3.90;;;2.47;;
32633;SDS011;19043;51.012;5.648;2023-07-29T14:07:18;4.95;;;3.65;;
32633;SDS011;19043;51.012;5.648;2023-07-29T14:09:44;4.23;;;3.47;;
32633;SDS011;19043;51.012;5.648;2023-07-29T14:12:09;4.70;;;4.10;;
32633;SDS011;19043;51.012;5.648;2023-07-29T14:14:39;5.15;;;3.83;;
32633;SDS011;19043;51.012;5.648;2023-07-29T14:17:05;4.28;;;3.60;;
32633;SDS011;19043;51.012;5.648;2023-07-29T14:19:31;4.78;;;3.22;;
32633;SDS011;19043;51.012;5.648;2023-07-29T14:21:58;4.88;;;2.72;;
32633;SDS011;19043;51.012;5.648;2023-07-29T14:24:23;3.87;;;2.57;;
32633;SDS011;19043;51.012;5.648;2023-07-29T14:26:49;2.83;;;2.30;;
32633;SDS011;19043;51.012;5.648;2023-07-29T14:29:14;3.38;;;2.45;;
32633;SDS011;19043;51.012;5.648;2023-07-29T14:31:39;3.77;;;2.30;;
32633;SDS011;19043;51.012;5.648;2023-07-29T14:34:05;3.63;;;2.30;;
32633;SDS011;19043;51.012;5.648;2023-07-29T14:36:30;2.93;;;2.10;;
32633;SDS011;19043;51.012;5.648;2023-07-29T14:38:55;2.80;;;2.00;;
32633;SDS011;19043;51.012;5.648;2023-07-29T14:41:20;3.43;;;1.83;;
32633;SDS011;19043;51.012;5.648;2023-07-29T14:43:46;2.30;;;1.38;;
32633;SDS011;19043;51.012;5.648;2023-07-29T14:46:11;2.10;;;1.30;;
32633;SDS011;19043;51.012;5.648;2023-07-29T14:48:36;2.63;;;1.42;;
32633;SDS011;19043;51.012;5.648;2023-07-29T14:51:01;2.37;;;1.03;;
32633;SDS011;19043;51.012;5.648;2023-07-29T14:53:27;2.30;;;1.05;;
32633;SDS011;19043;51.012;5.648;2023-07-29T14:55:52;2.08;;;1.00;;
32633;SDS011;19043;51.012;5.648;2023-07-29T14:58:17;1.70;;;1.00;;
32633;SDS011;19043;51.012;5.648;2023-07-29T15:00:43;2.53;;;1.30;;